sensor_id;sensor_type;location;lat;lon;timestamp;pressure;altitude;pressure_sealevel;temperature;humidity
73700;BME280;62005;50.082;8.988;2023-01-19T00:00:33;99431.66;;;-1.29;84.51
73700;BME280;62005;50.082;8.988;2023-01-19T00:02:58;99442.56;;;-1.32;84.71
73700;BME280;62005;50.082;8.988;2023-01-19T00:05:23;99428.38;;;-1.39;84.67
73700;BME280;62005;50.082;8.988;2023-01-19T00:07:49;99442.91;;;-1.35;84.29
73700;BME280;62005;50.082;8.988;2023-01-19T00:10:14;99440.09;;;-1.34;84.78
73700;BME280;62005;50.082;8.988;2023-01-19T00:12:40;99440.44;;;-1.37;84.89
73700;BME280;62005;50.082;8.988;2023-01-19T00:15:05;99439.94;;;-1.40;85.13
73700;BME280;62005;50.082;8.988;2023-01-19T00:17:31;99447.72;;;-1.39;85.27
73700;BME280;62005;50.082;8.988;2023-01-19T00:19:56;99448.56;;;-1.38;84.96
73700;BME280;62005;50.082;8.988;2023-01-19T00:22:22;99429.19;;;-1.47;84.57
73700;BME280;62005;50.082;8.988;2023-01-19T00:24:47;99425.75;;;-1.55;84.72
73700;BME280;62005;50.082;8.988;2023-01-19T00:27:12;99428.22;;;-1.54;84.80
73700;BME280;62005;50.082;8.988;2023-01-19T00:29:38;99415.84;;;-1.61;84.76
73700;BME280;62005;50.082;8.988;2023-01-19T00:32:04;99444.94;;;-1.45;84.14
73700;BME280;62005;50.082;8.988;2023-01-19T00:34:29;99435.69;;;-1.49;84.83
73700;BME280;62005;50.082;8.988;2023-01-19T00:37:06;99436.03;;;-1.52;84.47
73700;BME280;62005;50.082;8.988;2023-01-19T00:39:32;99456.88;;;-1.41;84.58
73700;BME280;62005;50.082;8.988;2023-01-19T00:41:57;99431.03;;;-1.55;84.02
73700;BME280;62005;50.082;8.988;2023-01-19T00:44:41;99446.28;;;-1.49;84.43
73700;BME280;62005;50.082;8.988;2023-01-19T00:47:06;99442.97;;;-1.51;84.79
73700;BME280;62005;50.082;8.988;2023-01-19T00:49:32;99455.53;;;-1.45;84.43
73700;BME280;62005;50.082;8.988;2023-01-19T00:51:57;99451.59;;;-1.49;85.21
73700;BME280;62005;50.082;8.988;2023-01-19T00:54:23;99441.97;;;-1.58;84.33
73700;BME280;62005;50.082;8.988;2023-01-19T00:56:49;99438.34;;;-1.57;84.93
73700;BME280;62005;50.082;8.988;2023-01-19T00:59:14;99453.56;;;-1.51;84.87
73700;BME280;62005;50.082;8.988;2023-01-19T01:01:39;99452.22;;;-1.55;85.08
73700;BME280;62005;50.082;8.988;2023-01-19T01:04:04;99455.03;;;-1.49;84.94
73700;BME280;62005;50.082;8.988;2023-01-19T01:06:30;99452.22;;;-1.55;85.17
73700;BME280;62005;50.082;8.988;2023-01-19T01:08:55;99454.38;;;-1.59;85.16
73700;BME280;62005;50.082;8.988;2023-01-19T01:11:21;99466.66;;;-1.50;85.37
73700;BME280;62005;50.082;8.988;2023-01-19T01:13:46;99466.66;;;-1.50;85.10
73700;BME280;62005;50.082;8.988;2023-01-19T01:16:14;99474.41;;;-1.48;85.11
73700;BME280;62005;50.082;8.988;2023-01-19T01:18:40;99463.50;;;-1.53;85.21
73700;BME280;62005;50.082;8.988;2023-01-19T01:21:06;99462.84;;;-1.55;85.13
73700;BME280;62005;50.082;8.988;2023-01-19T01:23:32;99478.09;;;-1.49;85.15
73700;BME280;62005;50.082;8.988;2023-01-19T01:25:58;99469.31;;;-1.58;84.89
73700;BME280;62005;50.082;8.988;2023-01-19T01:28:23;99463.84;;;-1.64;85.37
73700;BME280;62005;50.082;8.988;2023-01-19T01:30:53;99478.09;;;-1.57;85.41
73700;BME280;62005;50.082;8.988;2023-01-19T01:33:18;99479.91;;;-1.58;85.55
73700;BME280;62005;50.082;8.988;2023-01-19T01:35:44;99470.00;;;-1.64;85.24
73700;BME280;62005;50.082;8.988;2023-01-19T01:38:09;99482.72;;;-1.59;84.55
73700;BME280;62005;50.082;8.988;2023-01-19T01:40:38;99491.00;;;-1.54;84.39
73700;BME280;62005;50.082;8.988;2023-01-19T01:43:10;99490.00;;;-1.53;84.91
73700;BME280;62005;50.082;8.988;2023-01-19T01:45:37;99491.66;;;-1.60;84.80
73700;BME280;62005;50.082;8.988;2023-01-19T01:50:59;99479.75;;;-1.64;84.82
73700;BME280;62005;50.082;8.988;2023-01-19T01:53:46;99484.38;;;-1.58;85.00
73700;BME280;62005;50.082;8.988;2023-01-19T01:56:17;99490.00;;;-1.53;84.82
73700;BME280;62005;50.082;8.988;2023-01-19T01:58:43;99494.63;;;-1.55;84.88
73700;BME280;62005;50.082;8.988;2023-01-19T02:01:09;99492.31;;;-1.58;85.04
73700;BME280;62005;50.082;8.988;2023-01-19T02:03:54;99489.66;;;-1.58;84.89
73700;BME280;62005;50.082;8.988;2023-01-19T02:06:20;99469.16;;;-1.64;84.83
73700;BME280;62005;50.082;8.988;2023-01-19T02:08:49;99495.81;;;-1.58;85.30
73700;BME280;62005;50.082;8.988;2023-01-19T02:11:36;99470.78;;;-1.63;85.23
73700;BME280;62005;50.082;8.988;2023-01-19T02:14:21;99479.75;;;-1.64;85.52
73700;BME280;62005;50.082;8.988;2023-01-19T02:16:46;99491.81;;;-1.62;85.09
73700;BME280;62005;50.082;8.988;2023-01-19T02:19:16;99481.72;;;-1.66;85.57
73700;BME280;62005;50.082;8.988;2023-01-19T02:21:52;99487.53;;;-1.63;85.39
73700;BME280;62005;50.082;8.988;2023-01-19T02:24:19;99486.69;;;-1.63;85.25
73700;BME280;62005;50.082;8.988;2023-01-19T02:26:46;99483.72;;;-1.68;85.49
73700;BME280;62005;50.082;8.988;2023-01-19T02:29:15;99500.94;;;-1.64;85.13
73700;BME280;62005;50.082;8.988;2023-01-19T02:31:42;99482.06;;;-1.69;85.02
73700;BME280;62005;50.082;8.988;2023-01-19T02:34:09;99491.50;;;-1.67;85.14
73700;BME280;62005;50.082;8.988;2023-01-19T02:37:04;99493.66;;;-1.62;85.24
73700;BME280;62005;50.082;8.988;2023-01-19T02:39:52;99476.78;;;-1.69;85.44
73700;BME280;62005;50.082;8.988;2023-01-19T02:42:28;99476.44;;;-1.66;85.62
73700;BME280;62005;50.082;8.988;2023-01-19T02:44:56;99466.50;;;-1.72;85.54
73700;BME280;62005;50.082;8.988;2023-01-19T02:47:22;99482.72;;;-1.59;85.64
73700;BME280;62005;50.082;8.988;2023-01-19T02:49:59;99464.50;;;-1.70;84.93
73700;BME280;62005;50.082;8.988;2023-01-19T02:52:25;99490.66;;;-1.51;85.34
73700;BME280;62005;50.082;8.988;2023-01-19T02:55:10;99489.81;;;-1.52;85.71
73700;BME280;62005;50.082;8.988;2023-01-19T02:58:15;99480.75;;;-1.57;85.41
73700;BME280;62005;50.082;8.988;2023-01-19T03:00:51;99494.47;;;-1.46;86.32
73700;BME280;62005;50.082;8.988;2023-01-19T03:03:30;99495.94;;;-1.43;85.74
73700;BME280;62005;50.082;8.988;2023-01-19T03:06:03;99482.03;;;-1.45;85.50
73700;BME280;62005;50.082;8.988;2023-01-19T03:11:10;99490.13;;;-1.39;85.69
73700;BME280;62005;50.082;8.988;2023-01-19T03:13:49;99483.69;;;-1.36;85.42
73700;BME280;62005;50.082;8.988;2023-01-19T03:16:20;99481.69;;;-1.34;85.58
73700;BME280;62005;50.082;8.988;2023-01-19T03:18:53;99484.97;;;-1.32;85.91
73700;BME280;62005;50.082;8.988;2023-01-19T03:21:22;99479.06;;;-1.34;85.89
73700;BME280;62005;50.082;8.988;2023-01-19T03:23:49;99479.69;;;-1.32;85.09
73700;BME280;62005;50.082;8.988;2023-01-19T03:26:23;99461.50;;;-1.43;85.73
73700;BME280;62005;50.082;8.988;2023-01-19T03:28:50;99489.81;;;-1.27;85.87
73700;BME280;62005;50.082;8.988;2023-01-19T03:31:19;99484.66;;;-1.29;85.18
73700;BME280;62005;50.082;8.988;2023-01-19T03:33:49;99497.06;;;-1.21;85.66
73700;BME280;62005;50.082;8.988;2023-01-19T03:36:23;99486.81;;;-1.24;85.74
73700;BME280;62005;50.082;8.988;2023-01-19T03:38:49;99478.19;;;-1.26;85.41
73700;BME280;62005;50.082;8.988;2023-01-19T03:41:18;99482.00;;;-1.21;85.90
73700;BME280;62005;50.082;8.988;2023-01-19T03:43:47;99478.34;;;-1.20;85.64
73700;BME280;62005;50.082;8.988;2023-01-19T03:46:13;99487.63;;;-1.16;85.75
73700;BME280;62005;50.082;8.988;2023-01-19T03:48:41;99484.97;;;-1.16;85.86
73700;BME280;62005;50.082;8.988;2023-01-19T03:51:08;99474.69;;;-1.19;85.60
73700;BME280;62005;50.082;8.988;2023-01-19T03:53:35;99480.66;;;-1.17;85.80
73700;BME280;62005;50.082;8.988;2023-01-19T03:56:00;99482.94;;;-1.14;85.80
73700;BME280;62005;50.082;8.988;2023-01-19T03:58:25;99475.34;;;-1.17;86.05
73700;BME280;62005;50.082;8.988;2023-01-19T04:00:51;99479.00;;;-1.18;86.02
73700;BME280;62005;50.082;8.988;2023-01-19T04:03:17;99483.81;;;-1.21;85.57
73700;BME280;62005;50.082;8.988;2023-01-19T04:05:43;99476.69;;;-1.21;85.77
73700;BME280;62005;50.082;8.988;2023-01-19T04:08:09;99486.25;;;-1.12;85.65
73700;BME280;62005;50.082;8.988;2023-01-19T04:10:34;99488.25;;;-1.14;85.81
73700;BME280;62005;50.082;8.988;2023-01-19T04:13:00;99494.88;;;-1.10;85.81
73700;BME280;62005;50.082;8.988;2023-01-19T04:15:27;99479.66;;;-1.16;85.92
73700;BME280;62005;50.082;8.988;2023-01-19T04:17:53;99488.91;;;-1.12;85.74
73700;BME280;62005;50.082;8.988;2023-01-19T04:20:20;99494.88;;;-1.10;86.23
73700;BME280;62005;50.082;8.988;2023-01-19T04:22:46;99479.00;;;-1.18;86.11
73700;BME280;62005;50.082;8.988;2023-01-19T04:25:13;99475.69;;;-1.20;86.63
73700;BME280;62005;50.082;8.988;2023-01-19T04:27:38;99490.91;;;-1.06;86.55
73700;BME280;62005;50.082;8.988;2023-01-19T04:30:04;99483.94;;;-1.07;87.05
73700;BME280;62005;50.082;8.988;2023-01-19T04:32:30;99490.91;;;-1.06;86.51
73700;BME280;62005;50.082;8.988;2023-01-19T04:34:56;99495.88;;;-1.03;86.61
73700;BME280;62005;50.082;8.988;2023-01-19T04:37:21;99491.72;;;-1.05;86.93
73700;BME280;62005;50.082;8.988;2023-01-19T04:39:46;99487.59;;;-1.08;86.86
73700;BME280;62005;50.082;8.988;2023-01-19T04:42:12;99494.19;;;-1.04;87.13
73700;BME280;62005;50.082;8.988;2023-01-19T04:44:37;99495.53;;;-1.00;86.62
73700;BME280;62005;50.082;8.988;2023-01-19T04:47:03;99502.16;;;-0.96;87.00
73700;BME280;62005;50.082;8.988;2023-01-19T04:49:28;99491.84;;;-0.99;87.23
73700;BME280;62005;50.082;8.988;2023-01-19T04:51:54;99495.50;;;-0.92;86.98
73700;BME280;62005;50.082;8.988;2023-01-19T04:54:19;99487.38;;;-0.98;87.18
73700;BME280;62005;50.082;8.988;2023-01-19T04:56:45;99483.59;;;-0.96;86.73
73700;BME280;62005;50.082;8.988;2023-01-19T04:59:10;99485.06;;;-0.93;87.21
73700;BME280;62005;50.082;8.988;2023-01-19T05:01:36;99501.09;;;-0.87;86.66
73700;BME280;62005;50.082;8.988;2023-01-19T05:04:01;99501.59;;;-0.83;86.96
73700;BME280;62005;50.082;8.988;2023-01-19T05:06:29;99518.34;;;-0.83;86.57
73700;BME280;62005;50.082;8.988;2023-01-19T05:08:54;99508.41;;;-0.89;86.71
73700;BME280;62005;50.082;8.988;2023-01-19T05:11:19;99499.50;;;-0.96;86.44
73700;BME280;62005;50.082;8.988;2023-01-19T05:13:45;99505.56;;;-0.87;87.27
73700;BME280;62005;50.082;8.988;2023-01-19T05:16:10;99521.97;;;-0.84;86.32
73700;BME280;62005;50.082;8.988;2023-01-19T05:18:38;99510.06;;;-0.88;87.05
73700;BME280;62005;50.082;8.988;2023-01-19T05:21:03;99504.09;;;-0.90;86.73
73700;BME280;62005;50.082;8.988;2023-01-19T05:23:29;99512.06;;;-0.90;86.99
73700;BME280;62005;50.082;8.988;2023-01-19T05:25:56;99524.28;;;-0.81;87.33
73700;BME280;62005;50.082;8.988;2023-01-19T05:28:25;99538.03;;;-0.77;87.09
73700;BME280;62005;50.082;8.988;2023-01-19T05:30:50;99530.25;;;-0.79;87.13
73700;BME280;62005;50.082;8.988;2023-01-19T05:33:16;99520.81;;;-0.81;87.12
73700;BME280;62005;50.082;8.988;2023-01-19T05:35:41;99546.31;;;-0.72;86.62
73700;BME280;62005;50.082;8.988;2023-01-19T05:38:06;99538.53;;;-0.74;87.03
73700;BME280;62005;50.082;8.988;2023-01-19T05:40:32;99530.25;;;-0.79;86.81
73700;BME280;62005;50.082;8.988;2023-01-19T05:42:57;99529.59;;;-0.73;86.68
73700;BME280;62005;50.082;8.988;2023-01-19T05:45:28;99517.16;;;-0.80;87.08
73700;BME280;62005;50.082;8.988;2023-01-19T05:47:53;99528.91;;;-0.67;87.07
73700;BME280;62005;50.082;8.988;2023-01-19T05:50:19;99530.19;;;-0.63;86.72
73700;BME280;62005;50.082;8.988;2023-01-19T05:52:44;99524.06;;;-0.63;86.87
73700;BME280;62005;50.082;8.988;2023-01-19T05:55:10;99516.63;;;-0.68;87.56
73700;BME280;62005;50.082;8.988;2023-01-19T05:57:35;99512.63;;;-0.64;87.62
73700;BME280;62005;50.082;8.988;2023-01-19T06:00:03;99541.78;;;-0.56;87.12
73700;BME280;62005;50.082;8.988;2023-01-19T06:02:28;99517.63;;;-0.69;87.50
73700;BME280;62005;50.082;8.988;2023-01-19T06:04:54;99523.25;;;-0.64;87.67
73700;BME280;62005;50.082;8.988;2023-01-19T06:07:20;99528.19;;;-0.61;87.73
73700;BME280;62005;50.082;8.988;2023-01-19T06:09:45;99530.81;;;-0.53;87.74
73700;BME280;62005;50.082;8.988;2023-01-19T06:12:10;99537.78;;;-0.52;87.85
73700;BME280;62005;50.082;8.988;2023-01-19T06:14:36;99527.19;;;-0.52;87.54
73700;BME280;62005;50.082;8.988;2023-01-19T06:17:02;99534.44;;;-0.46;87.73
73700;BME280;62005;50.082;8.988;2023-01-19T06:19:27;99523.50;;;-0.51;87.50
73700;BME280;62005;50.082;8.988;2023-01-19T06:21:53;99542.72;;;-0.41;88.01
73700;BME280;62005;50.082;8.988;2023-01-19T06:24:18;99552.00;;;-0.37;87.32
73700;BME280;62005;50.082;8.988;2023-01-19T06:26:44;99550.31;;;-0.38;87.64
73700;BME280;62005;50.082;8.988;2023-01-19T06:29:09;99544.03;;;-0.37;88.03
73700;BME280;62005;50.082;8.988;2023-01-19T06:31:36;99556.59;;;-0.31;87.30
73700;BME280;62005;50.082;8.988;2023-01-19T06:34:02;99546.69;;;-0.37;87.93
73700;BME280;62005;50.082;8.988;2023-01-19T06:36:28;99558.72;;;-0.26;87.38
73700;BME280;62005;50.082;8.988;2023-01-19T06:38:53;99562.88;;;-0.24;87.46
73700;BME280;62005;50.082;8.988;2023-01-19T06:41:18;99558.84;;;-0.20;87.43
73700;BME280;62005;50.082;8.988;2023-01-19T06:43:44;99558.53;;;-0.17;87.42
73700;BME280;62005;50.082;8.988;2023-01-19T06:46:09;99561.81;;;-0.15;87.21
73700;BME280;62005;50.082;8.988;2023-01-19T06:48:34;99545.94;;;-0.23;87.33
73700;BME280;62005;50.082;8.988;2023-01-19T06:51:00;99547.91;;;-0.17;87.54
73700;BME280;62005;50.082;8.988;2023-01-19T06:53:25;99564.44;;;-0.07;87.66
73700;BME280;62005;50.082;8.988;2023-01-19T06:55:52;99549.56;;;-0.16;87.94
73700;BME280;62005;50.082;8.988;2023-01-19T06:58:17;99561.78;;;-0.07;87.89
73700;BME280;62005;50.082;8.988;2023-01-19T07:00:43;99556.47;;;-0.07;87.56
73700;BME280;62005;50.082;8.988;2023-01-19T07:03:10;99569.06;;;-0.01;88.00
73700;BME280;62005;50.082;8.988;2023-01-19T07:05:42;99565.75;;;-0.03;87.81
73700;BME280;62005;50.082;8.988;2023-01-19T07:08:07;99568.69;;;0.03;87.27
73700;BME280;62005;50.082;8.988;2023-01-19T07:10:32;99577.34;;;0.05;87.13
73700;BME280;62005;50.082;8.988;2023-01-19T07:12:58;99568.22;;;-0.01;87.02
73700;BME280;62005;50.082;8.988;2023-01-19T07:15:23;99573.00;;;0.03;87.26
73700;BME280;62005;50.082;8.988;2023-01-19T07:17:48;99575.34;;;0.07;87.33
73700;BME280;62005;50.082;8.988;2023-01-19T07:20:14;99566.22;;;0.01;87.03
73700;BME280;62005;50.082;8.988;2023-01-19T07:22:40;99579.44;;;0.09;87.59
73700;BME280;62005;50.082;8.988;2023-01-19T07:25:08;99590.56;;;0.13;87.45
73700;BME280;62005;50.082;8.988;2023-01-19T07:27:33;99588.22;;;0.18;87.16
73700;BME280;62005;50.082;8.988;2023-01-19T07:29:58;99573.97;;;0.11;87.32
73700;BME280;62005;50.082;8.988;2023-01-19T07:32:26;99573.31;;;0.09;86.86
73700;BME280;62005;50.082;8.988;2023-01-19T07:34:51;99574.25;;;0.16;87.39
73700;BME280;62005;50.082;8.988;2023-01-19T07:37:17;99573.91;;;0.19;87.56
73700;BME280;62005;50.082;8.988;2023-01-19T07:39:42;99583.50;;;0.28;87.75
73700;BME280;62005;50.082;8.988;2023-01-19T07:42:07;99574.88;;;0.26;87.17
73700;BME280;62005;50.082;8.988;2023-01-19T07:44:33;99573.56;;;0.22;87.39
73700;BME280;62005;50.082;8.988;2023-01-19T07:46:58;99585.97;;;0.29;87.46
73700;BME280;62005;50.082;8.988;2023-01-19T07:49:23;99590.09;;;0.32;87.42
73700;BME280;62005;50.082;8.988;2023-01-19T07:51:48;99575.81;;;0.33;86.92
73700;BME280;62005;50.082;8.988;2023-01-19T07:54:14;99583.44;;;0.36;87.14
73700;BME280;62005;50.082;8.988;2023-01-19T07:56:39;99565.56;;;0.30;86.82
73700;BME280;62005;50.082;8.988;2023-01-19T07:59:04;99575.09;;;0.39;87.14
73700;BME280;62005;50.082;8.988;2023-01-19T08:01:33;99582.09;;;0.40;87.73
73700;BME280;62005;50.082;8.988;2023-01-19T08:03:59;99572.16;;;0.34;86.98
73700;BME280;62005;50.082;8.988;2023-01-19T08:06:44;99581.72;;;0.43;86.87
73700;BME280;62005;50.082;8.988;2023-01-19T08:09:09;99588.31;;;0.47;86.82
73700;BME280;62005;50.082;8.988;2023-01-19T08:11:36;99563.22;;;0.27;86.78
73700;BME280;62005;50.082;8.988;2023-01-19T08:14:02;99579.94;;;0.35;86.92
73700;BME280;62005;50.082;8.988;2023-01-19T08:16:27;99591.34;;;0.44;86.93
73700;BME280;62005;50.082;8.988;2023-01-19T08:18:52;99582.09;;;0.40;86.97
73700;BME280;62005;50.082;8.988;2023-01-19T08:21:18;99598.97;;;0.47;86.90
73700;BME280;62005;50.082;8.988;2023-01-19T08:23:43;99589.03;;;0.41;86.54
73700;BME280;62005;50.082;8.988;2023-01-19T08:28:54;99587.81;;;0.51;86.89
73700;BME280;62005;50.082;8.988;2023-01-19T08:31:20;99587.97;;;0.50;87.02
73700;BME280;62005;50.082;8.988;2023-01-19T08:33:46;99579.84;;;0.51;86.88
73700;BME280;62005;50.082;8.988;2023-01-19T08:36:11;99577.63;;;0.55;86.55
73700;BME280;62005;50.082;8.988;2023-01-19T08:38:36;99580.75;;;0.58;87.40
73700;BME280;62005;50.082;8.988;2023-01-19T08:41:05;99588.78;;;0.73;87.53
73700;BME280;62005;50.082;8.988;2023-01-19T08:43:30;99592.66;;;0.85;87.05
73700;BME280;62005;50.082;8.988;2023-01-19T08:45:56;99583.34;;;0.89;86.75
73700;BME280;62005;50.082;8.988;2023-01-19T08:48:22;99600.78;;;1.06;87.34
73700;BME280;62005;50.082;8.988;2023-01-19T08:50:48;99598.41;;;1.11;86.94
73700;BME280;62005;50.082;8.988;2023-01-19T08:53:15;99581.56;;;1.18;86.75
73700;BME280;62005;50.082;8.988;2023-01-19T08:55:40;99580.16;;;1.22;86.73
73700;BME280;62005;50.082;8.988;2023-01-19T08:58:06;99596.44;;;1.42;85.63
73700;BME280;62005;50.082;8.988;2023-01-19T09:00:34;99591.66;;;1.52;86.15
73700;BME280;62005;50.082;8.988;2023-01-19T09:03:02;99559.59;;;1.46;85.68
73700;BME280;62005;50.082;8.988;2023-01-19T09:05:29;99585.41;;;1.74;86.08
73700;BME280;62005;50.082;8.988;2023-01-19T09:07:55;99589.25;;;1.86;84.88
73700;BME280;62005;50.082;8.988;2023-01-19T09:10:21;99590.16;;;1.93;85.02
73700;BME280;62005;50.082;8.988;2023-01-19T09:12:46;99566.78;;;1.95;85.00
73700;BME280;62005;50.082;8.988;2023-01-19T09:15:12;99581.75;;;2.11;84.17
73700;BME280;62005;50.082;8.988;2023-01-19T09:17:38;99588.06;;;2.24;83.05
73700;BME280;62005;50.082;8.988;2023-01-19T09:20:04;99523.91;;;1.90;83.30
73700;BME280;62005;50.082;8.988;2023-01-19T09:22:30;99548.53;;;2.13;82.98
73700;BME280;62005;50.082;8.988;2023-01-19T09:24:56;99577.16;;;2.40;82.61
73700;BME280;62005;50.082;8.988;2023-01-19T09:27:24;99591.91;;;2.57;82.60
73700;BME280;62005;50.082;8.988;2023-01-19T09:29:49;99585.16;;;2.61;82.59
73700;BME280;62005;50.082;8.988;2023-01-19T09:32:18;99598.41;;;2.76;82.26
73700;BME280;62005;50.082;8.988;2023-01-19T09:34:44;99583.22;;;2.77;82.18
73700;BME280;62005;50.082;8.988;2023-01-19T09:37:09;99589.31;;;2.92;81.35
73700;BME280;62005;50.082;8.988;2023-01-19T09:39:35;99592.47;;;3.02;81.36
73700;BME280;62005;50.082;8.988;2023-01-19T09:43:10;99591.69;;;3.08;80.77
73700;BME280;62005;50.082;8.988;2023-01-19T09:45:03;99587.25;;;3.15;80.72
73700;BME280;62005;50.082;8.988;2023-01-19T09:47:32;99604.19;;;3.28;80.59
73700;BME280;62005;50.082;8.988;2023-01-19T09:50:08;99598.50;;;3.38;79.14
73700;BME280;62005;50.082;8.988;2023-01-19T09:52:40;99597.72;;;3.44;78.58
73700;BME280;62005;50.082;8.988;2023-01-19T09:55:19;99587.91;;;3.51;78.30
73700;BME280;62005;50.082;8.988;2023-01-19T09:57:46;99593.31;;;3.64;77.46
73700;BME280;62005;50.082;8.988;2023-01-19T10:00:17;99583.88;;;3.68;76.62
73700;BME280;62005;50.082;8.988;2023-01-19T10:03:10;99582.69;;;3.77;76.29
73700;BME280;62005;50.082;8.988;2023-01-19T10:06:03;99603.34;;;3.96;75.98
73700;BME280;62005;50.082;8.988;2023-01-19T10:08:40;99596.78;;;4.05;74.87
73700;BME280;62005;50.082;8.988;2023-01-19T10:11:18;99597.88;;;4.17;75.05
73700;BME280;62005;50.082;8.988;2023-01-19T10:13:49;99604.72;;;4.26;74.68
73700;BME280;62005;50.082;8.988;2023-01-19T10:16:41;99600.63;;;4.37;75.01
73700;BME280;62005;50.082;8.988;2023-01-19T10:21:49;99579.66;;;4.53;74.48
73700;BME280;62005;50.082;8.988;2023-01-19T10:24:29;99590.00;;;4.69;74.54
73700;BME280;62005;50.082;8.988;2023-01-19T10:26:57;99586.28;;;4.83;73.28
73700;BME280;62005;50.082;8.988;2023-01-19T10:32:03;99575.59;;;4.83;71.46
73700;BME280;62005;50.082;8.988;2023-01-19T10:34:31;99574.97;;;4.81;70.62
73700;BME280;62005;50.082;8.988;2023-01-19T10:37:02;99591.22;;;4.86;72.01
73700;BME280;62005;50.082;8.988;2023-01-19T10:39:28;99587.13;;;4.90;71.37
73700;BME280;62005;50.082;8.988;2023-01-19T10:41:54;99598.25;;;4.87;70.71
73700;BME280;62005;50.082;8.988;2023-01-19T10:44:25;99596.16;;;4.89;71.53
73700;BME280;62005;50.082;8.988;2023-01-19T10:46:51;99581.34;;;4.74;71.07
73700;BME280;62005;50.082;8.988;2023-01-19T10:49:29;99606.06;;;4.82;70.45
73700;BME280;62005;50.082;8.988;2023-01-19T10:52:00;99594.94;;;4.72;70.92
73700;BME280;62005;50.082;8.988;2023-01-19T10:54:27;99594.09;;;4.65;71.12
73700;BME280;62005;50.082;8.988;2023-01-19T10:56:57;99610.16;;;4.65;70.70
73700;BME280;62005;50.082;8.988;2023-01-19T10:59:46;99608.09;;;4.54;71.29
73700;BME280;62005;50.082;8.988;2023-01-19T11:04:54;99613.00;;;4.44;71.80
73700;BME280;62005;50.082;8.988;2023-01-19T11:12:58;99612.97;;;4.31;73.70
73700;BME280;62005;50.082;8.988;2023-01-19T11:15:32;99606.13;;;4.22;73.73
73700;BME280;62005;50.082;8.988;2023-01-19T11:18:00;99606.75;;;4.18;74.77
73700;BME280;62005;50.082;8.988;2023-01-19T11:20:38;99610.03;;;4.13;74.71
73700;BME280;62005;50.082;8.988;2023-01-19T11:23:18;99610.78;;;4.07;75.91
73700;BME280;62005;50.082;8.988;2023-01-19T11:25:48;99612.59;;;4.00;76.68
73700;BME280;62005;50.082;8.988;2023-01-19T11:28:20;99585.59;;;3.82;76.53
73700;BME280;62005;50.082;8.988;2023-01-19T11:31:35;99602.47;;;3.82;77.11
73700;BME280;62005;50.082;8.988;2023-01-19T11:36:16;99610.22;;;3.71;77.27
73700;BME280;62005;50.082;8.988;2023-01-19T11:38:44;99591.63;;;3.56;77.15
73700;BME280;62005;50.082;8.988;2023-01-19T11:41:32;99614.69;;;3.64;77.63
73700;BME280;62005;50.082;8.988;2023-01-19T11:46:37;99586.25;;;3.50;78.02
73700;BME280;62005;50.082;8.988;2023-01-19T11:49:14;99590.31;;;3.46;77.92
73700;BME280;62005;50.082;8.988;2023-01-19T11:51:50;99600.25;;;3.52;77.85
73700;BME280;62005;50.082;8.988;2023-01-19T11:54:23;99609.25;;;3.51;76.83
73700;BME280;62005;50.082;8.988;2023-01-19T11:56:53;99607.59;;;3.43;77.48
73700;BME280;62005;50.082;8.988;2023-01-19T11:59:20;99565.50;;;3.18;77.35
73700;BME280;62005;50.082;8.988;2023-01-19T12:01:50;99600.13;;;3.39;77.29
73700;BME280;62005;50.082;8.988;2023-01-19T12:04:34;99608.16;;;3.39;77.65
73700;BME280;62005;50.082;8.988;2023-01-19T12:07:03;99607.53;;;3.37;78.00
73700;BME280;62005;50.082;8.988;2023-01-19T12:09:39;99613.28;;;3.34;77.79
73700;BME280;62005;50.082;8.988;2023-01-19T12:12:19;99622.28;;;3.33;78.27
73700;BME280;62005;50.082;8.988;2023-01-19T12:15:01;99600.84;;;3.20;77.55
73700;BME280;62005;50.082;8.988;2023-01-19T12:17:32;99619.00;;;3.31;78.06
73700;BME280;62005;50.082;8.988;2023-01-19T12:20:04;99616.72;;;3.28;78.56
73700;BME280;62005;50.082;8.988;2023-01-19T12:22:36;99613.16;;;3.21;79.05
73700;BME280;62005;50.082;8.988;2023-01-19T12:25:14;99623.66;;;3.22;78.83
73700;BME280;62005;50.082;8.988;2023-01-19T12:27:43;99610.25;;;3.16;79.55
73700;BME280;62005;50.082;8.988;2023-01-19T12:30:20;99603.66;;;3.12;80.13
73700;BME280;62005;50.082;8.988;2023-01-19T12:32:49;99599.72;;;3.08;79.86
73700;BME280;62005;50.082;8.988;2023-01-19T12:41:23;99616.38;;;3.10;80.94
73700;BME280;62005;50.082;8.988;2023-01-19T12:46:35;99619.19;;;3.02;81.30
73700;BME280;62005;50.082;8.988;2023-01-19T12:49:04;99620.81;;;3.03;81.52
73700;BME280;62005;50.082;8.988;2023-01-19T12:51:30;99613.41;;;2.98;81.64
73700;BME280;62005;50.082;8.988;2023-01-19T12:53:57;99608.91;;;2.99;81.60
73700;BME280;62005;50.082;8.988;2023-01-19T12:56:29;99617.53;;;3.01;82.12
73700;BME280;62005;50.082;8.988;2023-01-19T12:58:56;99599.81;;;2.93;81.88
73700;BME280;62005;50.082;8.988;2023-01-19T13:01:21;99613.19;;;3.00;82.33
73700;BME280;62005;50.082;8.988;2023-01-19T13:04:31;99609.28;;;2.96;82.75
73700;BME280;62005;50.082;8.988;2023-01-19T13:09:34;99613.84;;;3.02;83.08
73700;BME280;62005;50.082;8.988;2023-01-19T13:12:16;99613.19;;;3.00;82.38
73700;BME280;62005;50.082;8.988;2023-01-19T13:14:43;99619.97;;;2.96;83.37
73700;BME280;62005;50.082;8.988;2023-01-19T13:17:44;99613.34;;;2.92;83.56
73700;BME280;62005;50.082;8.988;2023-01-19T13:25:29;99622.00;;;2.94;84.04
73700;BME280;62005;50.082;8.988;2023-01-19T13:27:55;99620.31;;;2.93;83.85
73700;BME280;62005;50.082;8.988;2023-01-19T13:30:25;99619.06;;;2.89;84.47
73700;BME280;62005;50.082;8.988;2023-01-19T13:32:53;99612.84;;;2.82;84.35
73700;BME280;62005;50.082;8.988;2023-01-19T13:35:21;99612.00;;;2.81;84.74
73700;BME280;62005;50.082;8.988;2023-01-19T13:37:47;99603.94;;;2.75;84.83
73700;BME280;62005;50.082;8.988;2023-01-19T13:40:32;99621.03;;;2.80;84.95
73700;BME280;62005;50.082;8.988;2023-01-19T13:42:57;99614.59;;;2.75;85.61
73700;BME280;62005;50.082;8.988;2023-01-19T13:45:34;99627.22;;;2.81;85.02
73700;BME280;62005;50.082;8.988;2023-01-19T13:48:05;99629.25;;;2.79;85.54
73700;BME280;62005;50.082;8.988;2023-01-19T13:50:33;99639.91;;;2.79;86.21
73700;BME280;62005;50.082;8.988;2023-01-19T13:52:59;99623.38;;;2.68;85.68
73700;BME280;62005;50.082;8.988;2023-01-19T13:55:26;99640.69;;;2.73;85.78
73700;BME280;62005;50.082;8.988;2023-01-19T13:57:53;99635.69;;;2.69;85.82